Time;durP1;ratioP1;P1;durP2;ratioP2;P2;SDS_P1;SDS_P2;PMS_P1;PMS_P2;Temp;Humidity;BMP_temperature;BMP_pressure;BME280_temperature;BME280_humidity;BME280_pressure;Samples;Min_cycle;Max_cycle;Signal;HPM_P1;HPM_P2
2021/07/03 00:00:59;;;;;;;;;13.00;11.25;;;;;;;;6419643;22;8727;-78
2021/07/03 00:03:24;;;;;;;;;14.75;13.25;;;;;;;;6419648;22;8765;-78
2021/07/03 00:05:50;;;;;;;;;11.00;11.00;;;;;;;;6419112;22;8724;-78
2021/07/03 00:08:15;;;;;;;;;16.00;13.25;;;;;;;;6419786;22;8731;-78
2021/07/03 00:10:41;;;;;;;;;12.00;10.00;;;;;;;;6419680;22;8727;-77
2021/07/03 00:13:06;;;;;;;;;11.50;11.50;;;;;;;;6419775;22;8841;-78
2021/07/03 00:15:31;;;;;;;;;15.25;13.75;;;;;;;;6419667;22;8731;-77
2021/07/03 00:18:00;;;;;;;;;11.50;11.00;;;;;;;;6390336;22;9455;-77
2021/07/03 00:20:25;;;;;;;;;14.50;14.00;;;;;;;;6419283;22;8668;-79
2021/07/03 00:22:51;;;;;;;;;12.00;12.00;;;;;;;;6419598;22;8778;-79
2021/07/03 00:25:17;;;;;;;;;13.75;12.00;;;;;;;;6419697;22;8727;-79
2021/07/03 00:27:42;;;;;;;;;19.75;16.25;;;;;;;;6418861;22;8740;-79
2021/07/03 00:30:09;;;;;;;;;15.00;13.25;;;;;;;;6419732;22;8755;-78
2021/07/03 00:32:35;;;;;;;;;16.75;16.00;;;;;;;;6419379;22;8743;-77
2021/07/03 00:35:00;;;;;;;;;12.75;11.75;;;;;;;;6419343;22;8732;-78
2021/07/03 00:37:25;;;;;;;;;14.00;14.00;;;;;;;;6419743;22;8759;-77
2021/07/03 00:39:51;;;;;;;;;16.00;13.50;;;;;;;;6419791;22;8739;-77
2021/07/03 00:42:16;;;;;;;;;13.50;13.50;;;;;;;;6419588;22;9666;-77
2021/07/03 00:44:42;;;;;;;;;13.75;13.25;;;;;;;;6419717;22;9522;-77
2021/07/03 00:47:08;;;;;;;;;12.25;11.00;;;;;;;;6419275;22;8760;-78
2021/07/03 00:49:34;;;;;;;;;12.50;12.50;;;;;;;;6419336;22;8795;-78
2021/07/03 00:52:00;;;;;;;;;13.75;12.00;;;;;;;;6419589;22;9570;-78
2021/07/03 00:54:26;;;;;;;;;17.25;14.00;;;;;;;;6419785;22;8758;-78
2021/07/03 00:57:02;;;;;;;;;17.00;14.00;;;;;;;;6419461;22;8800;-77
2021/07/03 00:59:32;;;;;;;;;18.50;16.25;;;;;;;;6419579;22;8707;-77
2021/07/03 01:01:57;;;;;;;;;12.00;11.50;;;;;;;;6390779;22;8758;-78
2021/07/03 01:04:22;;;;;;;;;13.50;12.75;;;;;;;;6419130;22;8727;-78
2021/07/03 01:06:48;;;;;;;;;15.75;13.75;;;;;;;;6419511;22;8814;-78
2021/07/03 01:09:13;;;;;;;;;12.50;12.50;;;;;;;;6390463;22;8840;-78
2021/07/03 01:11:38;;;;;;;;;17.00;13.50;;;;;;;;6417327;22;8739;-78
2021/07/03 01:14:04;;;;;;;;;15.00;12.50;;;;;;;;6419460;22;8770;-79
2021/07/03 01:16:29;;;;;;;;;16.00;14.25;;;;;;;;6419680;22;8842;-78
2021/07/03 01:18:54;;;;;;;;;12.25;10.75;;;;;;;;6390368;22;8858;-78
2021/07/03 01:21:20;;;;;;;;;11.25;10.50;;;;;;;;6418971;22;8728;-78
2021/07/03 01:23:46;;;;;;;;;13.50;11.50;;;;;;;;6419261;22;8731;-78
2021/07/03 01:26:11;;;;;;;;;13.50;12.25;;;;;;;;6390424;22;8759;-78
2021/07/03 01:28:36;;;;;;;;;13.00;13.00;;;;;;;;6418688;22;8728;-78
2021/07/03 01:31:02;;;;;;;;;18.00;13.75;;;;;;;;6419443;22;9481;-78
2021/07/03 01:33:27;;;;;;;;;15.50;15.25;;;;;;;;6419022;22;8798;-78
2021/07/03 01:35:52;;;;;;;;;16.25;14.25;;;;;;;;6419105;22;8743;-78
2021/07/03 01:38:22;;;;;;;;;23.00;18.50;;;;;;;;6419169;22;8735;-78
2021/07/03 01:40:47;;;;;;;;;26.50;20.00;;;;;;;;6419450;22;8804;-78
2021/07/03 01:43:20;;;;;;;;;29.50;21.75;;;;;;;;6418910;22;8779;-78
2021/07/03 01:45:46;;;;;;;;;28.25;23.50;;;;;;;;6419327;22;8742;-78
2021/07/03 01:48:12;;;;;;;;;25.75;22.75;;;;;;;;6418999;22;8731;-77
2021/07/03 01:50:37;;;;;;;;;19.75;17.25;;;;;;;;6419014;22;8732;-78
2021/07/03 01:53:02;;;;;;;;;24.50;17.00;;;;;;;;6419080;22;8751;-78
2021/07/03 01:55:28;;;;;;;;;22.50;18.75;;;;;;;;6419264;22;8727;-78
2021/07/03 01:57:53;;;;;;;;;17.50;15.50;;;;;;;;6419259;22;8743;-78
2021/07/03 02:00:19;;;;;;;;;16.50;16.50;;;;;;;;6419180;22;8739;-78
2021/07/03 02:02:44;;;;;;;;;13.00;13.00;;;;;;;;6418947;22;8740;-78
2021/07/03 02:05:11;;;;;;;;;14.50;13.50;;;;;;;;6419007;22;8761;-78
2021/07/03 02:07:36;;;;;;;;;17.50;14.75;;;;;;;;6419332;22;8719;-78
2021/07/03 02:10:01;;;;;;;;;15.50;14.50;;;;;;;;6419315;22;8865;-78
2021/07/03 02:12:27;;;;;;;;;12.75;12.25;;;;;;;;6419112;22;8759;-78
2021/07/03 02:14:52;;;;;;;;;17.25;15.00;;;;;;;;6390274;22;8801;-78
2021/07/03 02:17:17;;;;;;;;;16.75;15.50;;;;;;;;6419304;22;8711;-78
2021/07/03 02:19:43;;;;;;;;;14.25;14.00;;;;;;;;6419007;22;8755;-78
2021/07/03 02:22:08;;;;;;;;;15.50;15.00;;;;;;;;6419425;22;8846;-78
2021/07/03 02:24:34;;;;;;;;;16.50;13.75;;;;;;;;6418736;22;9536;-78
2021/07/03 02:26:59;;;;;;;;;17.50;14.75;;;;;;;;6418410;22;8774;-78
2021/07/03 02:29:24;;;;;;;;;17.75;16.50;;;;;;;;6419019;22;8751;-78
2021/07/03 02:31:50;;;;;;;;;15.50;13.75;;;;;;;;6418975;22;8770;-77
2021/07/03 02:34:15;;;;;;;;;14.25;12.25;;;;;;;;6418579;22;8731;-79
2021/07/03 02:36:40;;;;;;;;;14.25;14.00;;;;;;;;6418880;22;8727;-78
2021/07/03 02:39:06;;;;;;;;;15.00;13.25;;;;;;;;6419243;22;8736;-78
2021/07/03 02:41:32;;;;;;;;;13.75;13.75;;;;;;;;6418366;22;8916;-79
2021/07/03 02:43:59;;;;;;;;;13.25;12.50;;;;;;;;6419026;22;8712;-78
2021/07/03 02:46:24;;;;;;;;;16.50;15.50;;;;;;;;6419043;22;8703;-78
2021/07/03 02:48:50;;;;;;;;;14.50;11.50;;;;;;;;6418488;22;8819;-78
2021/07/03 02:51:15;;;;;;;;;16.75;13.75;;;;;;;;6418644;22;8739;-78
2021/07/03 02:53:40;;;;;;;;;18.00;16.50;;;;;;;;6418792;22;8782;-78
2021/07/03 02:56:06;;;;;;;;;18.75;14.75;;;;;;;;6418711;22;8739;-77
2021/07/03 02:58:31;;;;;;;;;15.50;14.25;;;;;;;;6418972;22;8891;-77
2021/07/03 03:00:57;;;;;;;;;18.25;16.00;;;;;;;;6418682;22;8736;-77
2021/07/03 03:03:22;;;;;;;;;16.50;13.25;;;;;;;;6418803;22;8731;-77
2021/07/03 03:05:47;;;;;;;;;15.00;14.50;;;;;;;;6418642;22;8731;-77
2021/07/03 03:08:12;;;;;;;;;14.50;13.50;;;;;;;;6418628;22;8762;-77
2021/07/03 03:10:38;;;;;;;;;21.25;16.50;;;;;;;;6418505;22;8798;-78
2021/07/03 03:13:03;;;;;;;;;16.75;16.75;;;;;;;;6418665;22;8774;-78
2021/07/03 03:15:29;;;;;;;;;17.75;15.50;;;;;;;;6418711;22;8806;-78
2021/07/03 03:17:54;;;;;;;;;17.00;15.25;;;;;;;;6418601;22;8785;-77
2021/07/03 03:20:19;;;;;;;;;14.00;12.75;;;;;;;;6418410;22;8780;-77
2021/07/03 03:22:45;;;;;;;;;17.25;13.25;;;;;;;;6418351;22;9510;-77
2021/07/03 03:25:10;;;;;;;;;18.50;15.75;;;;;;;;6418578;22;8735;-77
2021/07/03 03:27:36;;;;;;;;;17.25;14.25;;;;;;;;6418226;22;8789;-77
2021/07/03 03:30:02;;;;;;;;;15.50;12.75;;;;;;;;6389762;22;8732;-78
2021/07/03 03:32:28;;;;;;;;;18.75;16.50;;;;;;;;6389477;22;8795;-78
2021/07/03 03:34:53;;;;;;;;;13.00;13.00;;;;;;;;6418236;22;9376;-78
2021/07/03 03:37:18;;;;;;;;;13.25;13.25;;;;;;;;6418717;22;8743;-78
2021/07/03 03:39:44;;;;;;;;;13.75;12.75;;;;;;;;6418456;22;8767;-77
2021/07/03 03:42:09;;;;;;;;;12.00;12.00;;;;;;;;6389641;22;8763;-78
2021/07/03 03:44:34;;;;;;;;;15.25;13.50;;;;;;;;6418445;22;8810;-78
2021/07/03 03:47:00;;;;;;;;;16.50;14.00;;;;;;;;6388896;22;8747;-78
2021/07/03 03:49:25;;;;;;;;;12.75;12.50;;;;;;;;6418144;22;8728;-77
2021/07/03 03:51:51;;;;;;;;;12.67;11.00;;;;;;;;6418539;22;9448;-77
2021/07/03 03:54:17;;;;;;;;;18.75;17.00;;;;;;;;6420031;22;8792;-78
2021/07/03 03:56:43;;;;;;;;;20.50;16.75;;;;;;;;6419813;22;8854;-78
2021/07/03 03:59:10;;;;;;;;;15.00;14.00;;;;;;;;6419852;22;8823;-78
2021/07/03 04:01:35;;;;;;;;;11.75;11.75;;;;;;;;6419848;22;8841;-78
2021/07/03 04:04:01;;;;;;;;;15.75;14.00;;;;;;;;6390577;22;8735;-77
2021/07/03 04:06:26;;;;;;;;;15.25;14.00;;;;;;;;6419788;22;8751;-78
2021/07/03 04:08:51;;;;;;;;;17.50;14.25;;;;;;;;6390813;22;8842;-78
2021/07/03 04:11:17;;;;;;;;;14.50;13.75;;;;;;;;6391019;22;8771;-78
2021/07/03 04:13:42;;;;;;;;;16.00;15.00;;;;;;;;6420036;22;8783;-78
2021/07/03 04:16:07;;;;;;;;;8.25;8.25;;;;;;;;6420137;22;8881;-78
2021/07/03 04:18:33;;;;;;;;;14.25;12.50;;;;;;;;6390631;22;8755;-78
2021/07/03 04:20:58;;;;;;;;;16.50;14.25;;;;;;;;6419360;22;8720;-78
2021/07/03 04:23:23;;;;;;;;;18.25;16.50;;;;;;;;6419623;22;8763;-78
2021/07/03 04:25:49;;;;;;;;;16.75;13.25;;;;;;;;6419617;22;8758;-78
2021/07/03 04:28:14;;;;;;;;;17.50;15.50;;;;;;;;6419061;22;8759;-78
2021/07/03 04:30:39;;;;;;;;;16.00;16.00;;;;;;;;6419796;22;8720;-78
2021/07/03 04:33:06;;;;;;;;;16.25;14.00;;;;;;;;6419314;22;8826;-78
2021/07/03 04:35:31;;;;;;;;;15.50;14.75;;;;;;;;6419142;22;8731;-77
2021/07/03 04:37:56;;;;;;;;;12.25;11.25;;;;;;;;6419577;22;8727;-79
2021/07/03 04:40:22;;;;;;;;;13.50;13.25;;;;;;;;6390565;22;8841;-79
2021/07/03 04:42:47;;;;;;;;;14.25;12.50;;;;;;;;6419473;22;8735;-79
2021/07/03 04:45:12;;;;;;;;;17.50;15.25;;;;;;;;6419449;22;8739;-79
2021/07/03 04:47:38;;;;;;;;;17.50;13.50;;;;;;;;6419293;22;8767;-78
2021/07/03 04:50:06;;;;;;;;;15.75;15.75;;;;;;;;6419433;22;8855;-79
2021/07/03 04:52:31;;;;;;;;;16.25;14.25;;;;;;;;6419444;22;8778;-77
2021/07/03 04:54:58;;;;;;;;;15.25;12.50;;;;;;;;6419459;22;8739;-77
2021/07/03 04:57:23;;;;;;;;;15.75;14.50;;;;;;;;6419586;22;8703;-78
2021/07/03 04:59:48;;;;;;;;;18.50;14.75;;;;;;;;6419698;22;8735;-78
2021/07/03 05:02:14;;;;;;;;;14.00;13.75;;;;;;;;6419581;22;8763;-78
2021/07/03 05:04:40;;;;;;;;;13.75;13.00;;;;;;;;6419008;22;8751;-78
2021/07/03 05:07:05;;;;;;;;;17.25;14.00;;;;;;;;6419720;22;8738;-78
2021/07/03 05:09:31;;;;;;;;;14.00;14.00;;;;;;;;6419563;22;8748;-78
2021/07/03 05:11:56;;;;;;;;;14.00;13.00;;;;;;;;6390693;22;8759;-78
2021/07/03 05:14:22;;;;;;;;;15.75;14.25;;;;;;;;6419774;22;8753;-78
2021/07/03 05:16:47;;;;;;;;;16.75;16.00;;;;;;;;6390838;22;8787;-78
2021/07/03 05:19:13;;;;;;;;;16.25;14.50;;;;;;;;6419184;22;8720;-79
2021/07/03 05:21:38;;;;;;;;;17.25;13.75;;;;;;;;6419708;22;8807;-79
2021/07/03 05:24:04;;;;;;;;;15.75;14.25;;;;;;;;6419545;22;8767;-78
2021/07/03 05:26:29;;;;;;;;;15.75;15.00;;;;;;;;6390685;22;8798;-78
2021/07/03 05:28:54;;;;;;;;;14.00;14.00;;;;;;;;6418806;22;8728;-78
2021/07/03 05:31:20;;;;;;;;;14.75;12.00;;;;;;;;6419337;22;8767;-78
2021/07/03 05:33:45;;;;;;;;;17.50;17.50;;;;;;;;6419077;22;8838;-78
2021/07/03 05:36:10;;;;;;;;;19.50;16.25;;;;;;;;6419045;22;8783;-78
2021/07/03 05:38:44;;;;;;;;;13.00;13.00;;;;;;;;6419309;22;8727;-78
2021/07/03 05:41:10;;;;;;;;;14.50;14.50;;;;;;;;6419462;22;8720;-78
2021/07/03 05:43:37;;;;;;;;;18.00;14.75;;;;;;;;6418257;22;8782;-78
2021/07/03 05:46:03;;;;;;;;;13.50;12.25;;;;;;;;6390953;22;8747;-78
2021/07/03 05:48:29;;;;;;;;;17.00;14.00;;;;;;;;6419176;22;8756;-78
2021/07/03 05:50:54;;;;;;;;;17.00;15.00;;;;;;;;6419209;22;9463;-78
2021/07/03 05:53:20;;;;;;;;;13.75;13.75;;;;;;;;6419220;22;8747;-79
2021/07/03 05:55:45;;;;;;;;;18.00;15.25;;;;;;;;6419432;22;8727;-79
2021/07/03 05:58:10;;;;;;;;;16.75;14.25;;;;;;;;6419272;22;8712;-78
2021/07/03 06:00:35;;;;;;;;;16.75;15.00;;;;;;;;6419058;22;8732;-78
2021/07/03 06:03:01;;;;;;;;;15.00;14.00;;;;;;;;6418916;22;8731;-79
2021/07/03 06:05:26;;;;;;;;;16.00;14.50;;;;;;;;6418817;22;9479;-78
2021/07/03 06:07:52;;;;;;;;;17.50;14.75;;;;;;;;6419021;22;8728;-79
2021/07/03 06:10:17;;;;;;;;;15.25;15.25;;;;;;;;6419169;22;8724;-78
2021/07/03 06:12:42;;;;;;;;;16.50;16.25;;;;;;;;6418587;22;8747;-78
2021/07/03 06:15:08;;;;;;;;;16.50;15.50;;;;;;;;6418648;22;8719;-77
2021/07/03 06:17:34;;;;;;;;;21.25;16.50;;;;;;;;6418569;22;8727;-80
2021/07/03 06:19:59;;;;;;;;;15.50;15.00;;;;;;;;6419117;22;8751;-81
2021/07/03 06:22:24;;;;;;;;;18.75;16.00;;;;;;;;6390244;22;8808;-78
2021/07/03 06:24:50;;;;;;;;;16.00;16.00;;;;;;;;6418839;22;8767;-79
2021/07/03 06:27:15;;;;;;;;;15.00;14.50;;;;;;;;6418801;22;8770;-78
2021/07/03 06:29:41;;;;;;;;;18.00;17.00;;;;;;;;6419274;22;8786;-78
2021/07/03 06:32:06;;;;;;;;;16.50;13.25;;;;;;;;6419226;22;8838;-79
2021/07/03 06:34:32;;;;;;;;;16.50;15.50;;;;;;;;6389853;22;8795;-79
2021/07/03 06:36:58;;;;;;;;;21.25;17.00;;;;;;;;6418971;22;8757;-79
2021/07/03 06:39:23;;;;;;;;;17.75;13.75;;;;;;;;6419143;22;8758;-79
2021/07/03 06:41:49;;;;;;;;;17.75;16.25;;;;;;;;6390176;22;8739;-79
2021/07/03 06:44:14;;;;;;;;;17.75;14.75;;;;;;;;6419055;22;8826;-79
2021/07/03 06:46:39;;;;;;;;;17.25;15.75;;;;;;;;6419119;22;8774;-79
2021/07/03 06:49:05;;;;;;;;;15.00;15.00;;;;;;;;6389857;22;8767;-79
2021/07/03 06:51:30;;;;;;;;;15.75;14.50;;;;;;;;6418756;22;8728;-80
2021/07/03 06:53:57;;;;;;;;;20.75;18.75;;;;;;;;6390059;22;8746;-79
2021/07/03 06:56:23;;;;;;;;;19.50;16.00;;;;;;;;6390140;22;9630;-79
2021/07/03 06:58:48;;;;;;;;;19.00;16.25;;;;;;;;6419006;22;8727;-79
2021/07/03 07:01:14;;;;;;;;;19.75;17.50;;;;;;;;6418875;22;8848;-80
2021/07/03 07:03:39;;;;;;;;;17.00;15.75;;;;;;;;6418668;22;8735;-79
2021/07/03 07:06:04;;;;;;;;;17.50;15.75;;;;;;;;6389486;22;8751;-79
2021/07/03 07:08:29;;;;;;;;;17.25;16.50;;;;;;;;6418511;22;8735;-79
2021/07/03 07:10:55;;;;;;;;;18.75;14.75;;;;;;;;6389638;22;9498;-79
2021/07/03 07:13:20;;;;;;;;;20.50;19.00;;;;;;;;6418632;22;8858;-79
2021/07/03 07:15:46;;;;;;;;;18.00;16.25;;;;;;;;6418967;22;8731;-79
2021/07/03 07:18:11;;;;;;;;;17.50;17.00;;;;;;;;6418546;22;8790;-79
2021/07/03 07:20:36;;;;;;;;;16.25;16.25;;;;;;;;6389518;22;8774;-79
2021/07/03 07:23:02;;;;;;;;;18.25;16.75;;;;;;;;6418629;22;8849;-79
2021/07/03 07:25:27;;;;;;;;;19.50;17.50;;;;;;;;6418507;22;8754;-79
2021/07/03 07:27:52;;;;;;;;;17.25;16.25;;;;;;;;6419195;22;8827;-79
2021/07/03 07:30:20;;;;;;;;;19.00;17.25;;;;;;;;6420097;22;8751;-79
2021/07/03 07:32:46;;;;;;;;;18.00;18.00;;;;;;;;6419573;22;8735;-78
2021/07/03 07:35:12;;;;;;;;;18.00;16.75;;;;;;;;6419606;22;8723;-79
2021/07/03 07:37:37;;;;;;;;;21.50;19.75;;;;;;;;6420185;22;8727;-79
2021/07/03 07:40:03;;;;;;;;;21.50;18.00;;;;;;;;6420094;22;8758;-79
2021/07/03 07:42:29;;;;;;;;;20.25;17.25;;;;;;;;6419986;22;8810;-78
2021/07/03 07:44:54;;;;;;;;;20.75;16.25;;;;;;;;6391007;22;8727;-79
2021/07/03 07:47:20;;;;;;;;;17.00;17.00;;;;;;;;6420035;22;8772;-78
2021/07/03 07:49:45;;;;;;;;;15.25;14.75;;;;;;;;6419449;22;8842;-79
2021/07/03 07:52:10;;;;;;;;;20.00;17.25;;;;;;;;6419740;22;8731;-79
2021/07/03 07:54:36;;;;;;;;;14.75;14.25;;;;;;;;6419674;22;8716;-79
2021/07/03 07:57:01;;;;;;;;;19.75;17.75;;;;;;;;6419846;22;8747;-79
2021/07/03 07:59:26;;;;;;;;;19.75;16.75;;;;;;;;6419660;22;8786;-78
2021/07/03 08:01:52;;;;;;;;;18.75;17.50;;;;;;;;6419693;22;8760;-79
2021/07/03 08:04:17;;;;;;;;;17.25;16.25;;;;;;;;6419290;22;8739;-78
2021/07/03 08:06:42;;;;;;;;;18.50;18.00;;;;;;;;6419859;22;8739;-78
2021/07/03 08:09:08;;;;;;;;;17.75;16.75;;;;;;;;6419498;22;8739;-79
2021/07/03 08:11:33;;;;;;;;;17.25;15.75;;;;;;;;6419722;22;8736;-79
2021/07/03 08:13:58;;;;;;;;;19.50;14.75;;;;;;;;6419666;22;8755;-78
2021/07/03 08:16:24;;;;;;;;;13.75;13.75;;;;;;;;6391077;22;9479;-77
2021/07/03 08:18:49;;;;;;;;;16.50;15.50;;;;;;;;6419463;22;8727;-79
2021/07/03 08:21:16;;;;;;;;;15.25;14.50;;;;;;;;6390890;22;9007;-79
2021/07/03 08:23:42;;;;;;;;;17.00;15.25;;;;;;;;6419486;22;8711;-78
2021/07/03 08:26:07;;;;;;;;;15.50;15.50;;;;;;;;6419667;22;8754;-78
2021/07/03 08:28:32;;;;;;;;;17.50;16.50;;;;;;;;6419521;22;8751;-78
2021/07/03 08:30:57;;;;;;;;;13.00;13.00;;;;;;;;6419631;22;8784;-78
2021/07/03 08:33:23;;;;;;;;;19.50;17.50;;;;;;;;6419425;22;8859;-78
2021/07/03 08:35:48;;;;;;;;;15.25;13.25;;;;;;;;6390328;22;9504;-77
2021/07/03 08:38:13;;;;;;;;;14.00;14.00;;;;;;;;6419526;22;8739;-77
2021/07/03 08:40:39;;;;;;;;;13.50;13.50;;;;;;;;6419217;22;8731;-77
2021/07/03 08:43:04;;;;;;;;;12.00;12.00;;;;;;;;6390505;22;8782;-77
2021/07/03 08:45:29;;;;;;;;;12.25;11.75;;;;;;;;6419740;22;8743;-79
2021/07/03 08:47:55;;;;;;;;;13.00;9.25;;;;;;;;6419191;22;8731;-80
2021/07/03 08:50:21;;;;;;;;;14.75;14.75;;;;;;;;6390194;22;8929;-79
2021/07/03 08:52:47;;;;;;;;;15.75;14.25;;;;;;;;6419486;22;8712;-78
2021/07/03 08:55:25;;;;;;;;;16.25;14.00;;;;;;;;6419448;22;9463;-78
2021/07/03 08:57:51;;;;;;;;;16.50;15.00;;;;;;;;6419192;22;8824;-78
2021/07/03 09:00:21;;;;;;;;;15.50;13.50;;;;;;;;6419265;22;8723;-79
2021/07/03 09:02:47;;;;;;;;;18.00;15.25;;;;;;;;6418977;22;8750;-79
2021/07/03 09:05:20;;;;;;;;;17.50;15.50;;;;;;;;6390251;22;8731;-79
2021/07/03 09:07:45;;;;;;;;;13.75;13.00;;;;;;;;6418769;22;8762;-78
2021/07/03 09:10:10;;;;;;;;;17.50;16.25;;;;;;;;6419676;22;8759;-78
2021/07/03 09:12:36;;;;;;;;;13.75;13.50;;;;;;;;6419060;22;8775;-79
2021/07/03 09:15:09;;;;;;;;;18.50;16.75;;;;;;;;6419470;22;8720;-79
2021/07/03 09:17:44;;;;;;;;;14.50;12.00;;;;;;;;6419098;22;8735;-78
2021/07/03 09:20:09;;;;;;;;;17.50;15.75;;;;;;;;6419087;22;8682;-78
2021/07/03 09:22:35;;;;;;;;;16.00;13.00;;;;;;;;6419489;22;8751;-78
2021/07/03 09:25:00;;;;;;;;;15.50;15.00;;;;;;;;6418799;22;8739;-78
2021/07/03 09:27:25;;;;;;;;;16.75;15.25;;;;;;;;6390483;22;9487;-78
2021/07/03 09:29:51;;;;;;;;;9.25;8.00;;;;;;;;6419681;22;8727;-78
2021/07/03 09:32:17;;;;;;;;;14.25;12.50;;;;;;;;6419335;22;8722;-78
2021/07/03 09:34:42;;;;;;;;;16.75;13.50;;;;;;;;6419054;22;8735;-78
2021/07/03 09:37:08;;;;;;;;;16.50;14.25;;;;;;;;6419176;22;8735;-78
2021/07/03 09:39:33;;;;;;;;;13.75;11.50;;;;;;;;6419487;22;8770;-79
2021/07/03 09:41:59;;;;;;;;;14.50;12.75;;;;;;;;6419245;22;9459;-78
2021/07/03 09:44:25;;;;;;;;;17.75;15.75;;;;;;;;6419319;22;8756;-78
2021/07/03 09:46:51;;;;;;;;;14.25;13.75;;;;;;;;6419158;22;8758;-78
2021/07/03 09:49:22;;;;;;;;;18.00;18.00;;;;;;;;6416894;22;8732;-78
2021/07/03 09:51:48;;;;;;;;;16.25;15.50;;;;;;;;6419267;22;8742;-78
2021/07/03 09:54:17;;;;;;;;;18.50;17.00;;;;;;;;6419308;22;8724;-78
2021/07/03 09:56:43;;;;;;;;;17.75;16.75;;;;;;;;6419107;22;8728;-78
2021/07/03 09:59:09;;;;;;;;;18.25;14.25;;;;;;;;6419500;22;8711;-79
2021/07/03 10:01:38;;;;;;;;;17.75;15.50;;;;;;;;6419185;22;8765;-78
2021/07/03 10:04:04;;;;;;;;;14.25;13.00;;;;;;;;6418613;22;9583;-79
2021/07/03 10:06:32;;;;;;;;;13.25;11.75;;;;;;;;6419188;22;8734;-79
2021/07/03 10:09:03;;;;;;;;;14.25;13.25;;;;;;;;6390325;22;8735;-79
2021/07/03 10:11:30;;;;;;;;;16.00;14.75;;;;;;;;6419168;22;8707;-79
2021/07/03 10:14:02;;;;;;;;;16.00;13.50;;;;;;;;6419082;22;9663;-79
2021/07/03 10:16:28;;;;;;;;;13.75;13.25;;;;;;;;6418851;22;8708;-79
2021/07/03 10:19:05;;;;;;;;;15.50;13.25;;;;;;;;6418965;22;8747;-79
2021/07/03 10:21:30;;;;;;;;;14.00;13.00;;;;;;;;6419176;22;8700;-79
2021/07/03 10:23:55;;;;;;;;;13.75;12.50;;;;;;;;6418966;22;8719;-79
2021/07/03 10:26:20;;;;;;;;;10.75;10.75;;;;;;;;6418815;22;8727;-78
2021/07/03 10:28:49;;;;;;;;;12.50;11.50;;;;;;;;6417591;22;8763;-78
2021/07/03 10:31:15;;;;;;;;;13.50;13.50;;;;;;;;6390091;22;8762;-78
2021/07/03 10:33:42;;;;;;;;;14.00;14.00;;;;;;;;6418596;22;8759;-85
2021/07/03 10:36:07;;;;;;;;;13.00;12.00;;;;;;;;6418909;22;8656;-81
2021/07/03 10:38:40;;;;;;;;;14.50;13.00;;;;;;;;6419120;22;8779;-81
2021/07/03 10:41:08;;;;;;;;;15.00;13.25;;;;;;;;6418955;22;8720;-81
2021/07/03 10:43:40;;;;;;;;;14.75;13.75;;;;;;;;6418858;22;8719;-81
2021/07/03 10:46:06;;;;;;;;;13.25;13.25;;;;;;;;6419263;22;8723;-81
2021/07/03 10:48:32;;;;;;;;;13.75;12.50;;;;;;;;6418450;22;8799;-81
2021/07/03 10:51:09;;;;;;;;;18.00;15.25;;;;;;;;6418749;22;8719;-81
2021/07/03 10:53:34;;;;;;;;;15.00;14.50;;;;;;;;6419022;22;8767;-81
2021/07/03 10:56:10;;;;;;;;;14.50;13.25;;;;;;;;6418935;22;8727;-81
2021/07/03 10:58:36;;;;;;;;;18.75;14.50;;;;;;;;6418671;22;8712;-80
2021/07/03 11:01:09;;;;;;;;;17.25;15.25;;;;;;;;6418886;22;8700;-81
2021/07/03 11:03:48;;;;;;;;;12.50;12.50;;;;;;;;6419606;22;8740;-80
2021/07/03 11:06:20;;;;;;;;;9.75;9.75;;;;;;;;6420286;22;8828;-81
2021/07/03 11:08:46;;;;;;;;;10.00;10.00;;;;;;;;6420028;22;8726;-81
2021/07/03 11:11:13;;;;;;;;;11.25;10.50;;;;;;;;6419872;22;8764;-81
2021/07/03 11:13:39;;;;;;;;;9.00;8.25;;;;;;;;6419969;22;8743;-82
2021/07/03 11:16:07;;;;;;;;;11.25;10.00;;;;;;;;6419998;22;8752;-80
2021/07/03 11:18:42;;;;;;;;;12.25;10.75;;;;;;;;6419736;22;8735;-80
2021/07/03 11:21:08;;;;;;;;;10.25;9.50;;;;;;;;6419644;22;9646;-80
2021/07/03 11:23:35;;;;;;;;;11.25;9.50;;;;;;;;6420042;22;8719;-80
2021/07/03 11:26:00;;;;;;;;;12.75;12.75;;;;;;;;6419765;22;8727;-80
2021/07/03 11:28:28;;;;;;;;;13.25;11.75;;;;;;;;6419663;22;8776;-80
2021/07/03 11:30:57;;;;;;;;;14.75;12.75;;;;;;;;6419638;22;8696;-80
2021/07/03 11:33:25;;;;;;;;;12.50;11.00;;;;;;;;6419642;22;8731;-80
2021/07/03 11:35:51;;;;;;;;;14.75;13.00;;;;;;;;6419176;22;8818;-80
2021/07/03 11:38:20;;;;;;;;;13.50;11.50;;;;;;;;6420071;22;8751;-80
2021/07/03 11:40:46;;;;;;;;;10.75;10.75;;;;;;;;6419706;22;8719;-80
2021/07/03 11:43:12;;;;;;;;;18.00;11.50;;;;;;;;6390780;22;8819;-80
2021/07/03 11:45:38;;;;;;;;;10.00;9.00;;;;;;;;6419731;22;8773;-80
2021/07/03 11:48:05;;;;;;;;;8.50;7.50;;;;;;;;6419865;22;8715;-80
2021/07/03 11:50:32;;;;;;;;;7.50;6.50;;;;;;;;6419461;22;8704;-80
2021/07/03 11:52:58;;;;;;;;;7.25;7.00;;;;;;;;6419884;22;8765;-80
2021/07/03 11:55:25;;;;;;;;;6.50;6.00;;;;;;;;6419546;22;8719;-80
2021/07/03 11:57:51;;;;;;;;;6.50;5.75;;;;;;;;6419904;22;8719;-80
2021/07/03 12:00:18;;;;;;;;;7.25;6.75;;;;;;;;6419801;22;8728;-79
2021/07/03 12:02:44;;;;;;;;;6.00;6.00;;;;;;;;6419607;22;8712;-79
2021/07/03 12:05:10;;;;;;;;;6.50;6.50;;;;;;;;6419299;22;8765;-80
2021/07/03 12:07:36;;;;;;;;;8.00;8.00;;;;;;;;6419583;22;8742;-81
2021/07/03 12:10:02;;;;;;;;;5.75;5.75;;;;;;;;6419892;22;8723;-76
2021/07/03 12:12:28;;;;;;;;;4.75;4.75;;;;;;;;6419459;22;8716;-78
2021/07/03 12:15:19;;;;;;;;;4.00;4.00;;;;;;;;6419128;22;8776;-77
2021/07/03 12:17:45;;;;;;;;;4.00;4.00;;;;;;;;6412699;22;8832;-77
2021/07/03 12:20:11;;;;;;;;;5.75;5.00;;;;;;;;6419231;22;8723;-77
2021/07/03 12:22:38;;;;;;;;;4.25;4.00;;;;;;;;6390384;22;8744;-77
2021/07/03 12:25:10;;;;;;;;;6.25;5.25;;;;;;;;6419236;22;8715;-78
2021/07/03 12:27:35;;;;;;;;;5.75;5.75;;;;;;;;6419595;22;8747;-78
2021/07/03 12:30:04;;;;;;;;;4.75;4.75;;;;;;;;6419639;22;8747;-78
2021/07/03 12:32:29;;;;;;;;;7.00;5.00;;;;;;;;6419314;22;8716;-79
2021/07/03 12:34:55;;;;;;;;;6.75;5.50;;;;;;;;6419064;22;8825;-78
2021/07/03 12:37:20;;;;;;;;;6.25;4.25;;;;;;;;6419114;22;9602;-78
2021/07/03 12:39:46;;;;;;;;;4.25;4.25;;;;;;;;6419617;22;8818;-79
2021/07/03 12:42:13;;;;;;;;;7.25;5.50;;;;;;;;6419418;22;8830;-80
2021/07/03 12:44:48;;;;;;;;;4.75;4.75;;;;;;;;6390579;22;8736;-79
2021/07/03 12:47:15;;;;;;;;;6.50;4.00;;;;;;;;6419273;22;8719;-80
2021/07/03 12:49:41;;;;;;;;;6.50;5.50;;;;;;;;6419153;22;8739;-78
2021/07/03 12:52:08;;;;;;;;;6.00;6.00;;;;;;;;6419407;22;8727;-78
2021/07/03 12:54:33;;;;;;;;;5.25;4.25;;;;;;;;6419530;22;8746;-78
2021/07/03 12:56:59;;;;;;;;;4.50;4.00;;;;;;;;6419189;22;8724;-79
2021/07/03 12:59:33;;;;;;;;;6.25;6.25;;;;;;;;6419320;22;8723;-79
2021/07/03 13:02:03;;;;;;;;;5.00;4.25;;;;;;;;6390656;22;8735;-79
2021/07/03 13:04:28;;;;;;;;;6.50;5.75;;;;;;;;6418859;22;8728;-79
2021/07/03 13:06:53;;;;;;;;;5.00;5.00;;;;;;;;6419327;22;8779;-79
2021/07/03 13:09:19;;;;;;;;;6.00;5.00;;;;;;;;6419431;22;8735;-80
2021/07/03 13:11:44;;;;;;;;;5.50;4.00;;;;;;;;6419279;22;8791;-78
2021/07/03 13:14:09;;;;;;;;;6.75;5.00;;;;;;;;6419145;22;8766;-78
2021/07/03 13:16:34;;;;;;;;;10.00;8.00;;;;;;;;6419430;22;8719;-78
2021/07/03 13:19:00;;;;;;;;;6.75;6.00;;;;;;;;6418655;22;8727;-79
2021/07/03 13:21:25;;;;;;;;;7.75;7.25;;;;;;;;6419193;22;8750;-78
2021/07/03 13:23:50;;;;;;;;;7.00;5.00;;;;;;;;6419371;22;8790;-79
2021/07/03 13:26:16;;;;;;;;;6.50;5.25;;;;;;;;6418896;22;8719;-79
2021/07/03 13:28:42;;;;;;;;;6.75;6.50;;;;;;;;6418944;22;8826;-79
2021/07/03 13:31:08;;;;;;;;;5.25;5.25;;;;;;;;6419293;22;8716;-78
2021/07/03 13:33:34;;;;;;;;;10.75;6.25;;;;;;;;6418974;22;8767;-79
2021/07/03 13:36:00;;;;;;;;;4.25;4.25;;;;;;;;6419135;22;8719;-80
2021/07/03 13:38:25;;;;;;;;;6.75;6.50;;;;;;;;6419192;22;8727;-79
2021/07/03 13:40:51;;;;;;;;;4.75;4.75;;;;;;;;6418918;22;8740;-79
2021/07/03 13:43:16;;;;;;;;;5.75;5.75;;;;;;;;6418834;22;8743;-79
2021/07/03 13:45:41;;;;;;;;;7.00;6.00;;;;;;;;6419301;22;8757;-79
2021/07/03 13:48:07;;;;;;;;;6.00;5.25;;;;;;;;6419026;22;8758;-79
2021/07/03 13:50:32;;;;;;;;;7.00;6.00;;;;;;;;6419165;22;8763;-79
2021/07/03 13:52:58;;;;;;;;;9.00;6.00;;;;;;;;6390596;22;8851;-79
2021/07/03 13:55:23;;;;;;;;;6.00;6.00;;;;;;;;6390642;22;8795;-79
2021/07/03 13:57:48;;;;;;;;;4.50;4.50;;;;;;;;6419347;22;8795;-80
2021/07/03 14:00:14;;;;;;;;;8.00;7.00;;;;;;;;6419305;22;8755;-78
2021/07/03 14:02:39;;;;;;;;;8.75;6.00;;;;;;;;6419076;22;8751;-80
2021/07/03 14:05:07;;;;;;;;;7.00;6.00;;;;;;;;6418735;22;8724;-79
2021/07/03 14:07:32;;;;;;;;;6.00;6.00;;;;;;;;6418945;22;8964;-79
2021/07/03 14:09:58;;;;;;;;;5.00;4.00;;;;;;;;6419156;22;8719;-79
2021/07/03 14:12:23;;;;;;;;;4.75;3.50;;;;;;;;6419168;22;8879;-81
2021/07/03 14:14:48;;;;;;;;;3.75;3.75;;;;;;;;6419060;22;8743;-79
2021/07/03 14:17:14;;;;;;;;;4.00;4.00;;;;;;;;6419019;22;8820;-79
2021/07/03 14:19:39;;;;;;;;;6.00;6.00;;;;;;;;6418560;22;8732;-80
2021/07/03 14:22:04;;;;;;;;;6.00;6.00;;;;;;;;6419025;22;8774;-79
2021/07/03 14:24:30;;;;;;;;;5.50;3.75;;;;;;;;6418625;22;8783;-79
2021/07/03 14:26:55;;;;;;;;;4.00;4.00;;;;;;;;6418690;22;8834;-78
2021/07/03 14:29:20;;;;;;;;;5.00;5.00;;;;;;;;6419021;22;8747;-79